Holcomb, Kansas
Current Conditions -  °F | °C
As of 9:54 PM on Saturday 20 Dec 2014 (Local Time) from KGCK Reporting Station
Clear Clear  
Wind Chill: 22°   Ceiling: Unl
Heat Index: 31°   Visibility: 4mi
Dew Point: 30°   Wind: 10mph
Humidity: 96%   Direction: 170°S
Pressure: 29.97"   Gusts: NA
Location:  37.99°N, 100.99°W
Report Text: KGCK 210354Z AUTO 17009KT 4SM CLR M01/M01 A2997 RMK AO2 SLP168 T10061011
Loading
Personal Weather Stations






























Interactive Weather Map New forecast layout! Learn more

10-Day Weather Forecast

Advertisements
Track Severe Weather on mobile